createdAt,value
2022-12-26T00:02:27.348Z,10.05
2022-12-26T00:04:55.489Z,10.26
2022-12-26T00:07:23.826Z,10.31
2022-12-26T00:09:51.358Z,10.32
2022-12-26T00:12:20.486Z,10.50
2022-12-26T00:14:49.373Z,10.56
2022-12-26T00:17:17.122Z,10.60
2022-12-26T00:19:44.725Z,10.67
2022-12-26T00:22:12.573Z,10.71
2022-12-26T00:24:40.063Z,10.62
2022-12-26T00:27:09.956Z,10.66
2022-12-26T00:29:38.868Z,10.70
2022-12-26T00:32:06.406Z,10.74
2022-12-26T00:34:34.068Z,10.73
2022-12-26T00:37:01.596Z,10.68
2022-12-26T00:39:29.401Z,10.74
2022-12-26T00:41:56.955Z,10.70
2022-12-26T00:44:24.885Z,10.64
2022-12-26T00:46:54.150Z,10.62
2022-12-26T00:49:21.962Z,10.04
2022-12-26T00:51:49.713Z,10.06
2022-12-26T00:54:17.287Z,10.01
2022-12-26T00:56:45.832Z,9.86
2022-12-26T00:59:13.347Z,10.04
2022-12-26T01:01:41.058Z,10.02
2022-12-26T01:04:10.222Z,9.99
2022-12-26T01:06:37.933Z,10.00
2022-12-26T01:09:05.941Z,10.09
2022-12-26T01:11:34.927Z,10.06
2022-12-26T01:14:02.749Z,10.16
2022-12-26T01:16:30.526Z,10.09
2022-12-26T01:18:58.400Z,9.90
2022-12-26T01:21:27.302Z,10.10
2022-12-26T01:23:55.005Z,10.18
2022-12-26T01:26:22.675Z,10.35
2022-12-26T01:28:52.373Z,10.38
2022-12-26T01:31:21.744Z,10.39
2022-12-26T01:33:49.484Z,10.32
2022-12-26T01:36:18.184Z,10.26
2022-12-26T01:38:48.026Z,10.23
2022-12-26T01:41:15.784Z,10.27
2022-12-26T01:43:55.993Z,10.20
2022-12-26T01:46:30.887Z,10.19
2022-12-26T01:49:07.578Z,9.92
2022-12-26T01:51:42.117Z,9.94
2022-12-26T01:54:39.957Z,10.05
2022-12-26T01:57:08.971Z,9.81
2022-12-26T01:59:40.775Z,9.66
2022-12-26T02:02:10.720Z,9.55
2022-12-26T02:04:45.093Z,9.67
2022-12-26T02:07:14.071Z,9.79
2022-12-26T02:09:43.335Z,9.85
2022-12-26T02:12:34.130Z,9.89
2022-12-26T02:15:10.215Z,9.74
2022-12-26T02:17:39.228Z,9.48
2022-12-26T02:20:20.887Z,9.34
2022-12-26T02:23:26.685Z,9.33
2022-12-26T02:26:25.152Z,9.34
2022-12-26T02:29:55.327Z,9.29
2022-12-26T02:32:45.624Z,9.40
2022-12-26T02:35:28.014Z,9.59
2022-12-26T02:38:13.641Z,9.35
2022-12-26T02:40:53.263Z,9.50
2022-12-26T02:43:33.575Z,9.60
2022-12-26T02:46:13.079Z,9.66
2022-12-26T02:48:55.625Z,9.68
2022-12-26T02:51:42.484Z,9.91
2022-12-26T02:54:24.244Z,9.97
2022-12-26T02:56:57.438Z,9.94
2022-12-26T02:59:55.716Z,9.97
2022-12-26T03:02:29.618Z,9.99
2022-12-26T03:05:01.139Z,10.18
2022-12-26T03:07:35.570Z,9.97
2022-12-26T03:10:14.908Z,10.01
2022-12-26T03:12:50.371Z,10.13
2022-12-26T03:15:24.473Z,10.19
2022-12-26T03:17:58.144Z,10.15
2022-12-26T03:20:31.762Z,10.19
2022-12-26T03:23:05.749Z,10.22
2022-12-26T03:25:42.785Z,10.12
2022-12-26T03:28:10.714Z,10.16
2022-12-26T03:30:43.446Z,10.29
2022-12-26T03:33:12.709Z,10.20
2022-12-26T03:35:42.371Z,10.29
2022-12-26T03:38:16.590Z,10.26
2022-12-26T03:40:56.762Z,10.23
2022-12-26T03:43:42.559Z,10.22
2022-12-26T03:46:20.154Z,10.24
2022-12-26T03:48:57.713Z,10.02
2022-12-26T03:51:35.438Z,10.12
2022-12-26T03:54:10.995Z,10.10
2022-12-26T03:56:45.639Z,10.06
2022-12-26T03:59:20.708Z,10.06
2022-12-26T04:01:53.033Z,10.15
2022-12-26T04:04:24.879Z,10.06
2022-12-26T04:07:02.341Z,10.09
2022-12-26T04:09:35.622Z,10.12
2022-12-26T04:12:07.175Z,10.26
2022-12-26T04:14:45.168Z,10.29
2022-12-26T04:17:26.361Z,10.18
2022-12-26T04:20:05.415Z,10.18
2022-12-26T04:22:45.300Z,9.93
2022-12-26T04:25:20.215Z,9.90
2022-12-26T04:28:08.076Z,9.85
2022-12-26T04:30:42.445Z,9.74
2022-12-26T04:33:18.222Z,9.63
2022-12-26T04:35:52.122Z,9.65
2022-12-26T04:38:29.115Z,9.72
2022-12-26T04:41:01.912Z,9.59
2022-12-26T04:43:48.707Z,9.70
2022-12-26T04:46:23.668Z,9.62
2022-12-26T04:48:54.577Z,9.77
2022-12-26T04:51:22.155Z,9.69
2022-12-26T04:53:51.067Z,9.76
2022-12-26T04:56:18.670Z,9.75
2022-12-26T04:58:46.223Z,9.87
2022-12-26T05:01:16.384Z,9.84
2022-12-26T05:03:45.035Z,9.68
2022-12-26T05:06:12.971Z,9.81
2022-12-26T05:08:42.694Z,10.09
2022-12-26T05:11:11.621Z,10.14
2022-12-26T05:13:39.389Z,10.05
2022-12-26T05:16:09.168Z,10.20
2022-12-26T05:18:37.012Z,10.12
2022-12-26T05:21:04.848Z,9.99
2022-12-26T05:23:33.147Z,10.00
2022-12-26T05:26:01.524Z,10.02
2022-12-26T05:28:30.974Z,10.10
2022-12-26T05:30:58.980Z,10.21
2022-12-26T05:33:28.608Z,10.25
2022-12-26T05:35:57.637Z,10.17
2022-12-26T05:38:25.195Z,10.23
2022-12-26T05:40:54.242Z,10.15
2022-12-26T05:43:21.845Z,10.19
2022-12-26T05:45:50.804Z,10.16
2022-12-26T05:48:18.542Z,9.90
2022-12-26T05:50:46.143Z,9.92
2022-12-26T05:53:13.773Z,9.82
2022-12-26T05:55:41.425Z,9.64
2022-12-26T05:58:09.365Z,9.73
2022-12-26T06:00:36.929Z,9.88
2022-12-26T06:03:06.076Z,9.96
2022-12-26T06:05:33.793Z,9.85
2022-12-26T06:08:01.438Z,9.82
2022-12-26T06:10:31.212Z,9.95
2022-12-26T06:13:00.319Z,10.20
2022-12-26T06:15:27.957Z,10.16
2022-12-26T06:17:57.445Z,10.03
2022-12-26T06:20:26.468Z,10.03
2022-12-26T06:22:54.148Z,9.93
2022-12-26T06:25:25.179Z,10.05
2022-12-26T06:27:52.819Z,10.12
2022-12-26T06:30:22.509Z,10.25
2022-12-26T06:32:50.796Z,10.22
2022-12-26T06:35:18.961Z,10.36
2022-12-26T06:37:47.898Z,10.44
2022-12-26T06:40:15.986Z,10.47
2022-12-26T06:42:45.078Z,10.23
2022-12-26T06:45:12.628Z,10.22
2022-12-26T06:47:40.275Z,10.37
2022-12-26T06:50:08.617Z,10.36
2022-12-26T06:52:36.220Z,10.37
2022-12-26T06:55:05.706Z,10.16
2022-12-26T06:57:33.451Z,10.44
2022-12-26T07:00:01.023Z,10.58
2022-12-26T07:02:28.711Z,10.39
2022-12-26T07:04:59.339Z,10.29
2022-12-26T07:07:27.996Z,10.44
2022-12-26T07:09:56.701Z,10.33
2022-12-26T07:12:25.801Z,10.38
2022-12-26T07:14:56.664Z,10.13
2022-12-26T07:17:29.141Z,10.28
2022-12-26T07:19:56.667Z,10.29
2022-12-26T07:22:24.513Z,10.43
2022-12-26T07:24:52.089Z,10.36
2022-12-26T07:27:19.844Z,10.35
2022-12-26T07:29:51.722Z,10.27
2022-12-26T07:32:21.667Z,10.54
2022-12-26T07:34:49.348Z,10.55
2022-12-26T07:37:17.029Z,10.52
2022-12-26T07:39:44.725Z,10.51
2022-12-26T07:42:12.367Z,10.17
2022-12-26T07:44:41.483Z,10.38
2022-12-26T07:47:10.361Z,10.43
2022-12-26T07:49:37.912Z,10.38
2022-12-26T07:52:06.134Z,10.44
2022-12-26T07:54:35.030Z,10.44
2022-12-26T07:57:38.045Z,10.59
2022-12-26T07:59:53.393Z,10.62
2022-12-26T08:02:24.446Z,10.54
2022-12-26T08:04:52.396Z,10.67
2022-12-26T08:07:20.042Z,10.83
2022-12-26T08:09:48.010Z,10.91
2022-12-26T08:12:15.725Z,10.88
2022-12-26T08:14:44.172Z,11.01
2022-12-26T08:17:12.508Z,10.88
2022-12-26T08:19:42.944Z,10.95
2022-12-26T08:22:10.997Z,10.82
2022-12-26T08:24:39.479Z,10.95
2022-12-26T08:27:13.090Z,11.02
2022-12-26T08:29:43.228Z,11.09
2022-12-26T08:32:11.342Z,11.00
2022-12-26T08:34:39.944Z,11.10
2022-12-26T08:37:09.166Z,11.17
2022-12-26T08:39:41.437Z,11.14
2022-12-26T08:42:09.038Z,11.08
2022-12-26T08:44:40.951Z,11.28
2022-12-26T08:47:08.888Z,11.46
2022-12-26T08:49:36.585Z,11.31
2022-12-26T08:52:11.917Z,11.42
2022-12-26T08:54:39.511Z,11.11
2022-12-26T08:57:07.349Z,11.26
2022-12-26T08:59:36.614Z,11.07
2022-12-26T09:02:39.788Z,11.30
2022-12-26T09:08:16.153Z,11.34
2022-12-26T09:11:12.484Z,11.16
2022-12-26T09:13:41.599Z,10.96
2022-12-26T09:16:17.349Z,10.87
2022-12-26T09:18:46.375Z,10.98
2022-12-26T09:21:19.778Z,10.89
2022-12-26T09:23:57.720Z,10.74
2022-12-26T09:26:26.184Z,10.99
2022-12-26T09:28:54.680Z,10.72
2022-12-26T09:31:24.723Z,10.58
2022-12-26T09:33:52.945Z,10.48
2022-12-26T09:36:23.489Z,10.70
2022-12-26T09:38:54.055Z,10.50
2022-12-26T09:41:50.533Z,10.72
2022-12-26T09:44:25.059Z,10.56
2022-12-26T09:47:06.841Z,10.60
2022-12-26T09:49:41.525Z,10.39
2022-12-26T09:52:15.714Z,10.44
2022-12-26T09:54:54.341Z,10.76
2022-12-26T09:57:31.638Z,10.94
2022-12-26T10:00:03.912Z,10.99
2022-12-26T10:02:32.345Z,11.07
2022-12-26T10:05:00.714Z,11.16
2022-12-26T10:07:39.102Z,11.20
2022-12-26T10:10:14.252Z,11.22
2022-12-26T10:12:56.510Z,11.25
2022-12-26T10:15:36.081Z,11.36
2022-12-26T10:18:25.003Z,11.37
2022-12-26T10:21:15.895Z,11.37
2022-12-26T10:23:48.695Z,11.47
2022-12-26T10:26:23.760Z,11.49
2022-12-26T10:28:58.859Z,11.47
2022-12-26T10:31:35.174Z,11.67
2022-12-26T10:34:13.421Z,11.27
2022-12-26T10:36:47.178Z,11.22
2022-12-26T10:39:23.396Z,11.24
2022-12-26T10:41:58.348Z,11.07
2022-12-26T10:44:28.027Z,11.03
2022-12-26T10:47:18.855Z,10.94
2022-12-26T10:49:48.123Z,10.76
2022-12-26T10:52:19.064Z,10.74
2022-12-26T10:55:29.207Z,10.93
2022-12-26T10:57:48.675Z,10.47
2022-12-26T11:00:20.823Z,10.45
2022-12-26T11:03:04.146Z,10.33
2022-12-26T11:08:33.334Z,10.46
2022-12-26T11:11:07.948Z,10.41
2022-12-26T11:13:42.244Z,10.57
2022-12-26T11:16:10.491Z,10.61
2022-12-26T11:18:48.932Z,10.68
2022-12-26T11:21:22.537Z,10.86
2022-12-26T11:23:51.904Z,10.97
2022-12-26T11:26:23.184Z,11.11
2022-12-26T11:29:06.548Z,11.10
2022-12-26T11:31:36.306Z,11.12
2022-12-26T11:34:09.721Z,11.05
2022-12-26T11:36:45.891Z,11.19
2022-12-26T11:39:24.639Z,11.43
2022-12-26T11:41:53.532Z,11.42
2022-12-26T11:44:27.648Z,11.55
2022-12-26T11:47:02.307Z,11.59
2022-12-26T11:49:34.382Z,11.60
2022-12-26T11:52:23.784Z,11.56
2022-12-26T11:54:51.657Z,11.60
2022-12-26T11:57:22.087Z,11.44
2022-12-26T11:59:55.106Z,11.46
2022-12-26T12:02:28.087Z,11.64
2022-12-26T12:05:02.080Z,11.59
2022-12-26T12:07:49.723Z,11.71
2022-12-26T12:10:45.657Z,11.90
2022-12-26T12:13:25.166Z,11.88
2022-12-26T12:16:03.363Z,11.94
2022-12-26T12:18:45.907Z,11.82
2022-12-26T12:21:26.017Z,11.73
2022-12-26T12:24:20.352Z,11.88
2022-12-26T12:27:04.922Z,11.49
2022-12-26T12:29:54.063Z,11.09
2022-12-26T12:32:36.516Z,11.06
2022-12-26T12:35:23.125Z,11.13
2022-12-26T12:38:21.898Z,11.07
2022-12-26T12:41:01.228Z,11.15
2022-12-26T12:43:41.148Z,10.91
2022-12-26T12:46:26.695Z,10.95
2022-12-26T12:49:20.966Z,10.76
2022-12-26T12:51:58.245Z,10.77
2022-12-26T12:54:47.406Z,10.81
2022-12-26T12:57:26.464Z,10.71
2022-12-26T13:00:11.175Z,10.63
2022-12-26T13:02:45.691Z,10.65
2022-12-26T13:05:26.177Z,10.74
2022-12-26T13:08:01.715Z,10.83
2022-12-26T13:10:32.808Z,11.03
2022-12-26T13:13:13.721Z,11.15
2022-12-26T13:15:47.266Z,11.05
2022-12-26T13:18:20.894Z,11.32
2022-12-26T13:20:54.975Z,11.39
2022-12-26T13:23:29.753Z,11.18
2022-12-26T13:26:08.613Z,10.93
2022-12-26T13:28:48.272Z,10.74
2022-12-26T13:31:17.923Z,10.63
2022-12-26T13:33:45.625Z,10.62
2022-12-26T13:36:35.998Z,10.51
2022-12-26T13:39:35.677Z,10.41
2022-12-26T13:42:22.315Z,10.47
2022-12-26T13:44:53.150Z,10.55
2022-12-26T13:47:34.504Z,10.45
2022-12-26T13:50:38.075Z,10.48
2022-12-26T13:53:30.208Z,10.60
2022-12-26T13:56:01.366Z,10.56
2022-12-26T13:58:50.791Z,10.57
2022-12-26T14:01:37.555Z,10.84
2022-12-26T14:04:29.744Z,10.76
2022-12-26T14:07:28.588Z,11.06
2022-12-26T14:10:15.989Z,11.20
2022-12-26T14:13:01.456Z,10.97
2022-12-26T14:15:55.399Z,11.15
2022-12-26T14:18:41.254Z,11.31
2022-12-26T14:21:34.355Z,10.86
2022-12-26T14:24:18.385Z,10.74
2022-12-26T14:27:00.897Z,10.83
2022-12-26T14:29:40.120Z,10.70
2022-12-26T14:32:25.179Z,10.59
2022-12-26T14:35:07.196Z,10.77
2022-12-26T14:37:46.196Z,11.07
2022-12-26T14:40:27.287Z,11.29
2022-12-26T14:43:11.235Z,11.27
2022-12-26T14:45:51.841Z,11.36
2022-12-26T14:48:49.611Z,11.34
2022-12-26T14:51:47.432Z,11.49
2022-12-26T14:54:35.311Z,11.68
2022-12-26T14:57:36.836Z,11.81
2022-12-26T15:00:28.707Z,11.75
2022-12-26T15:03:43.971Z,11.85
2022-12-26T15:06:56.844Z,11.84
2022-12-26T15:10:04.204Z,11.86
2022-12-26T15:13:08.952Z,11.91
2022-12-26T15:15:58.710Z,11.85
2022-12-26T15:18:57.342Z,11.99
2022-12-26T15:22:09.172Z,11.99
2022-12-26T15:25:19.853Z,12.04
2022-12-26T15:28:36.720Z,12.06
2022-12-26T15:31:27.486Z,11.94
2022-12-26T15:34:01.558Z,11.98
2022-12-26T15:36:43.283Z,12.20
2022-12-26T15:39:36.879Z,12.16
2022-12-26T15:42:23.924Z,12.28
2022-12-26T15:45:09.193Z,12.13
2022-12-26T15:47:54.086Z,12.03
2022-12-26T15:50:31.500Z,12.08
2022-12-26T15:53:20.728Z,12.21
2022-12-26T15:56:20.323Z,12.15
2022-12-26T15:59:16.203Z,12.21
2022-12-26T16:01:46.135Z,12.25
2022-12-26T16:04:22.330Z,12.42
2022-12-26T16:07:06.382Z,12.37
2022-12-26T16:09:43.506Z,12.46
2022-12-26T16:12:24.768Z,12.30
2022-12-26T16:15:03.943Z,12.32
2022-12-26T16:17:31.637Z,12.37
2022-12-26T16:20:18.989Z,12.23
2022-12-26T16:22:50.007Z,12.22
2022-12-26T16:25:22.602Z,12.24
2022-12-26T16:27:55.886Z,12.31
2022-12-26T16:30:26.958Z,12.31
2022-12-26T16:32:55.898Z,12.30
2022-12-26T16:35:29.495Z,12.29
2022-12-26T16:38:00.001Z,12.18
2022-12-26T16:40:30.560Z,12.20
2022-12-26T16:43:06.498Z,12.24
2022-12-26T16:45:37.804Z,12.22
2022-12-26T16:48:08.099Z,12.04
2022-12-26T16:50:47.783Z,12.03
2022-12-26T16:53:19.743Z,11.85
2022-12-26T16:55:52.162Z,11.84
2022-12-26T16:58:25.653Z,11.81
2022-12-26T17:01:03.304Z,11.74
2022-12-26T17:03:43.690Z,11.84
2022-12-26T17:06:17.735Z,11.95
2022-12-26T17:08:49.270Z,11.90
2022-12-26T17:11:18.604Z,11.83
2022-12-26T17:13:52.705Z,11.70
2022-12-26T17:16:24.835Z,11.76
2022-12-26T17:18:54.879Z,11.66
2022-12-26T17:21:30.419Z,11.63
2022-12-26T17:24:13.009Z,11.65
2022-12-26T17:26:43.984Z,11.66
2022-12-26T17:29:36.451Z,11.71
2022-12-26T17:32:07.980Z,11.56
2022-12-26T17:34:40.990Z,11.64
2022-12-26T17:37:20.789Z,11.85
2022-12-26T17:39:59.030Z,11.73
2022-12-26T17:42:43.939Z,11.86
2022-12-26T17:45:16.535Z,11.85
2022-12-26T17:47:46.267Z,11.71
2022-12-26T17:50:14.357Z,11.69
2022-12-26T17:52:43.439Z,11.62
2022-12-26T17:55:17.225Z,11.58
2022-12-26T17:57:45.206Z,11.44
2022-12-26T18:00:18.805Z,11.49
2022-12-26T18:02:47.079Z,11.56
2022-12-26T18:05:16.335Z,11.53
2022-12-26T18:07:46.768Z,11.51
2022-12-26T18:10:22.928Z,11.66
2022-12-26T18:12:51.715Z,11.71
2022-12-26T18:15:20.397Z,11.76
2022-12-26T18:17:52.261Z,11.82
2022-12-26T18:20:23.201Z,11.95
2022-12-26T18:22:54.252Z,11.89
2022-12-26T18:25:25.730Z,11.93
2022-12-26T18:27:53.610Z,11.73
2022-12-26T18:30:23.895Z,11.75
2022-12-26T18:32:53.005Z,11.37
2022-12-26T18:35:23.032Z,11.49
2022-12-26T18:37:54.234Z,11.28
2022-12-26T18:40:29.501Z,11.41
2022-12-26T18:42:57.597Z,11.37
2022-12-26T18:45:25.837Z,11.30
2022-12-26T18:47:53.481Z,11.59
2022-12-26T18:50:21.501Z,11.56
2022-12-26T18:52:53.832Z,11.62
2022-12-26T18:55:24.659Z,11.73
2022-12-26T18:57:53.391Z,11.81
2022-12-26T19:00:22.435Z,11.63
2022-12-26T19:02:50.604Z,11.82
2022-12-26T19:05:21.699Z,11.81
2022-12-26T19:07:50.424Z,11.81
2022-12-26T19:10:22.287Z,11.73
2022-12-26T19:12:52.322Z,11.84
2022-12-26T19:15:20.203Z,11.88
2022-12-26T19:17:48.016Z,11.94
2022-12-26T19:20:20.865Z,11.98
2022-12-26T19:22:49.706Z,12.03
2022-12-26T19:25:20.532Z,12.15
2022-12-26T19:27:51.800Z,12.10
2022-12-26T19:30:22.295Z,12.07
2022-12-26T19:32:51.358Z,12.06
2022-12-26T19:35:19.067Z,12.16
2022-12-26T19:37:46.874Z,12.16
2022-12-26T19:40:17.249Z,12.19
2022-12-26T19:42:47.374Z,12.22
2022-12-26T19:45:15.380Z,12.28
2022-12-26T19:47:44.525Z,12.37
2022-12-26T19:50:12.535Z,12.39
2022-12-26T19:52:40.111Z,12.50
2022-12-26T19:55:14.609Z,12.48
2022-12-26T19:57:42.139Z,12.52
2022-12-26T20:00:12.856Z,12.52
2022-12-26T20:02:41.797Z,12.30
2022-12-26T20:05:14.577Z,12.23
2022-12-26T20:07:42.445Z,12.31
2022-12-26T20:10:11.186Z,12.33
2022-12-26T20:12:39.068Z,12.30
2022-12-26T20:15:07.725Z,12.28
2022-12-26T20:17:35.450Z,12.26
2022-12-26T20:20:05.268Z,12.24
2022-12-26T20:22:34.407Z,12.19
2022-12-26T20:25:02.332Z,12.21
2022-12-26T20:27:30.037Z,12.31
2022-12-26T20:29:57.603Z,12.32
2022-12-26T20:32:25.383Z,12.42
2022-12-26T20:34:53.435Z,12.48
2022-12-26T20:37:21.118Z,12.38
2022-12-26T20:39:50.154Z,12.40
2022-12-26T20:42:19.269Z,12.40
2022-12-26T20:44:46.882Z,12.34
2022-12-26T20:47:14.863Z,12.57
2022-12-26T20:49:42.505Z,12.60
2022-12-26T20:52:10.095Z,12.57
2022-12-26T20:54:37.720Z,12.59
2022-12-26T20:57:06.747Z,12.62
2022-12-26T20:59:34.287Z,12.59
2022-12-26T21:02:02.315Z,12.36
2022-12-26T21:04:30.081Z,12.54
2022-12-26T21:06:58.050Z,12.66
2022-12-26T21:09:25.653Z,12.44
2022-12-26T21:11:53.303Z,12.00
2022-12-26T21:14:24.771Z,12.31
2022-12-26T21:16:55.222Z,12.30
2022-12-26T21:19:28.173Z,12.39
2022-12-26T21:21:55.977Z,12.55
2022-12-26T21:24:28.442Z,12.42
2022-12-26T21:26:56.543Z,12.41
2022-12-26T21:29:27.834Z,12.27
2022-12-26T21:31:58.096Z,12.49
2022-12-26T21:34:29.075Z,12.50
2022-12-26T21:36:57.392Z,12.61
2022-12-26T21:39:24.943Z,12.59
2022-12-26T21:41:52.867Z,12.59
2022-12-26T21:44:20.892Z,12.51
2022-12-26T21:46:52.445Z,12.56
2022-12-26T21:49:20.258Z,12.29
2022-12-26T21:51:47.781Z,12.10
2022-12-26T21:54:15.312Z,12.06
2022-12-26T21:56:42.844Z,12.06
2022-12-26T21:59:10.488Z,12.11
2022-12-26T22:01:39.741Z,11.86
2022-12-26T22:04:12.042Z,11.86
2022-12-26T22:06:41.050Z,11.84
2022-12-26T22:09:09.407Z,11.87
2022-12-26T22:11:37.421Z,11.89
2022-12-26T22:14:05.123Z,11.81
2022-12-26T22:16:32.729Z,11.85
2022-12-26T22:19:00.346Z,11.77
2022-12-26T22:21:29.320Z,11.53
2022-12-26T22:23:56.835Z,11.64
2022-12-26T22:26:25.543Z,11.59
2022-12-26T22:28:53.480Z,11.62
2022-12-26T22:31:23.895Z,11.69
2022-12-26T22:33:54.731Z,11.69
2022-12-26T22:36:22.507Z,11.79
2022-12-26T22:38:51.721Z,11.75
2022-12-26T22:41:19.674Z,11.86
2022-12-26T22:43:47.321Z,11.85
2022-12-26T22:46:15.335Z,11.88
2022-12-26T22:48:42.937Z,11.79
2022-12-26T22:51:16.708Z,11.72
2022-12-26T22:53:44.542Z,11.83
2022-12-26T22:56:13.472Z,11.89
2022-12-26T22:58:41.205Z,12.00
2022-12-26T23:01:12.689Z,11.95
2022-12-26T23:03:40.699Z,12.06
2022-12-26T23:06:18.656Z,11.99
2022-12-26T23:08:47.210Z,11.98
2022-12-26T23:11:16.878Z,12.02
2022-12-26T23:13:46.257Z,12.03
2022-12-26T23:16:25.219Z,11.93
2022-12-26T23:18:58.500Z,11.96
2022-12-26T23:21:29.411Z,11.91
2022-12-26T23:23:57.050Z,11.96
2022-12-26T23:26:26.062Z,11.87
2022-12-26T23:28:53.603Z,11.83
2022-12-26T23:31:21.156Z,11.64
2022-12-26T23:33:48.699Z,11.70
2022-12-26T23:36:16.287Z,11.69
2022-12-26T23:38:43.820Z,11.70
2022-12-26T23:41:11.402Z,11.74
2022-12-26T23:43:40.592Z,11.76
2022-12-26T23:46:09.880Z,11.75
2022-12-26T23:48:37.618Z,11.80
2022-12-26T23:51:07.412Z,11.87
2022-12-26T23:53:35.785Z,11.77
2022-12-26T23:56:07.333Z,11.77
2022-12-26T23:58:36.267Z,11.81
